sensor_id;sensor_type;location;lat;lon;timestamp;P1;durP1;ratioP1;P2;durP2;ratioP2
3439;SDS011;1733;42.286;22.690;2022-12-29T11:47:42;11.87;;;6.03;;
3439;SDS011;1733;42.286;22.690;2022-12-29T12:32:17;8.97;;;6.63;;
3439;SDS011;1733;42.286;22.690;2022-12-29T12:34:49;10.07;;;6.60;;
3439;SDS011;1733;42.286;22.690;2022-12-29T12:37:25;5.70;;;5.20;;
3439;SDS011;1733;42.286;22.690;2022-12-29T12:40:28;6.43;;;4.80;;
3439;SDS011;1733;42.286;22.690;2022-12-29T12:43:12;6.83;;;5.30;;
3439;SDS011;1733;42.286;22.690;2022-12-29T12:45:55;6.10;;;4.70;;
3439;SDS011;1733;42.286;22.690;2022-12-29T12:48:44;16.37;;;7.83;;
3439;SDS011;1733;42.286;22.690;2022-12-29T12:51:26;14.80;;;6.47;;
3439;SDS011;1733;42.286;22.690;2022-12-29T12:54:04;11.73;;;5.77;;
3439;SDS011;1733;42.286;22.690;2022-12-29T12:56:47;13.87;;;8.50;;
3439;SDS011;1733;42.286;22.690;2022-12-29T12:59:36;8.03;;;6.30;;
3439;SDS011;1733;42.286;22.690;2022-12-29T13:02:14;11.67;;;8.07;;
3439;SDS011;1733;42.286;22.690;2022-12-29T13:04:58;16.30;;;6.47;;
3439;SDS011;1733;42.286;22.690;2022-12-29T13:07:46;11.63;;;5.93;;
3439;SDS011;1733;42.286;22.690;2022-12-29T13:10:22;14.00;;;7.47;;
3439;SDS011;1733;42.286;22.690;2022-12-29T13:13:05;6.33;;;5.70;;
3439;SDS011;1733;42.286;22.690;2022-12-29T13:15:44;6.07;;;5.47;;
3439;SDS011;1733;42.286;22.690;2022-12-29T13:18:20;6.57;;;5.67;;
3439;SDS011;1733;42.286;22.690;2022-12-29T13:20:57;7.93;;;7.07;;
3439;SDS011;1733;42.286;22.690;2022-12-29T13:23:33;7.30;;;5.33;;
3439;SDS011;1733;42.286;22.690;2022-12-29T13:26:08;14.60;;;7.93;;
3439;SDS011;1733;42.286;22.690;2022-12-29T13:28:43;5.70;;;5.27;;
3439;SDS011;1733;42.286;22.690;2022-12-29T13:31:23;8.93;;;5.03;;
3439;SDS011;1733;42.286;22.690;2022-12-29T13:33:58;10.03;;;5.90;;
3439;SDS011;1733;42.286;22.690;2022-12-29T13:36:34;8.93;;;4.80;;
3439;SDS011;1733;42.286;22.690;2022-12-29T13:39:09;9.03;;;6.67;;
3439;SDS011;1733;42.286;22.690;2022-12-29T13:41:40;14.83;;;6.43;;
3439;SDS011;1733;42.286;22.690;2022-12-29T13:44:13;9.60;;;5.70;;
3439;SDS011;1733;42.286;22.690;2022-12-29T13:46:45;5.93;;;4.60;;
3439;SDS011;1733;42.286;22.690;2022-12-29T13:49:13;6.10;;;5.17;;
3439;SDS011;1733;42.286;22.690;2022-12-29T13:51:47;8.37;;;5.43;;
3439;SDS011;1733;42.286;22.690;2022-12-29T13:54:23;9.97;;;8.00;;
3439;SDS011;1733;42.286;22.690;2022-12-29T13:57:01;7.17;;;5.47;;
3439;SDS011;1733;42.286;22.690;2022-12-29T13:59:36;8.73;;;7.17;;
3439;SDS011;1733;42.286;22.690;2022-12-29T14:02:15;5.17;;;4.77;;
3439;SDS011;1733;42.286;22.690;2022-12-29T14:05:00;5.40;;;4.33;;
3439;SDS011;1733;42.286;22.690;2022-12-29T14:07:35;10.17;;;6.70;;
3439;SDS011;1733;42.286;22.690;2022-12-29T14:10:05;19.10;;;7.10;;
3439;SDS011;1733;42.286;22.690;2022-12-29T14:12:52;11.40;;;8.37;;
3439;SDS011;1733;42.286;22.690;2022-12-29T14:15:28;7.40;;;6.60;;
3439;SDS011;1733;42.286;22.690;2022-12-29T14:18:09;22.53;;;15.17;;
3439;SDS011;1733;42.286;22.690;2022-12-29T14:20:39;28.87;;;22.17;;
3439;SDS011;1733;42.286;22.690;2022-12-29T14:23:25;23.10;;;16.30;;
3439;SDS011;1733;42.286;22.690;2022-12-29T14:25:56;28.87;;;13.47;;
3439;SDS011;1733;42.286;22.690;2022-12-29T14:28:25;16.87;;;11.70;;
3439;SDS011;1733;42.286;22.690;2022-12-29T14:30:54;22.00;;;11.97;;
3439;SDS011;1733;42.286;22.690;2022-12-29T14:33:22;21.63;;;12.87;;
3439;SDS011;1733;42.286;22.690;2022-12-29T14:35:51;17.00;;;11.43;;
3439;SDS011;1733;42.286;22.690;2022-12-29T14:38:22;16.73;;;10.67;;
3439;SDS011;1733;42.286;22.690;2022-12-29T14:40:51;16.40;;;12.00;;
3439;SDS011;1733;42.286;22.690;2022-12-29T14:43:20;29.40;;;22.50;;
3439;SDS011;1733;42.286;22.690;2022-12-29T14:45:52;76.60;;;42.23;;
3439;SDS011;1733;42.286;22.690;2022-12-29T14:48:30;77.40;;;43.13;;
3439;SDS011;1733;42.286;22.690;2022-12-29T14:51:01;26.70;;;16.00;;
3439;SDS011;1733;42.286;22.690;2022-12-29T14:53:45;198.70;;;104.17;;
3439;SDS011;1733;42.286;22.690;2022-12-29T14:56:14;147.90;;;78.17;;
3439;SDS011;1733;42.286;22.690;2022-12-29T14:58:44;90.57;;;38.37;;
3439;SDS011;1733;42.286;22.690;2022-12-29T15:01:17;191.30;;;76.60;;
3439;SDS011;1733;42.286;22.690;2022-12-29T15:03:48;94.27;;;51.40;;
3439;SDS011;1733;42.286;22.690;2022-12-29T15:06:16;33.03;;;18.60;;
3439;SDS011;1733;42.286;22.690;2022-12-29T15:08:49;32.47;;;19.90;;
3439;SDS011;1733;42.286;22.690;2022-12-29T15:11:19;46.23;;;26.67;;
3439;SDS011;1733;42.286;22.690;2022-12-29T15:13:48;38.03;;;23.40;;
3439;SDS011;1733;42.286;22.690;2022-12-29T15:16:22;70.57;;;44.87;;
3439;SDS011;1733;42.286;22.690;2022-12-29T15:18:51;123.27;;;64.60;;
3439;SDS011;1733;42.286;22.690;2022-12-29T15:21:19;43.97;;;29.27;;
3439;SDS011;1733;42.286;22.690;2022-12-29T15:23:50;29.77;;;19.40;;
3439;SDS011;1733;42.286;22.690;2022-12-29T15:26:18;28.53;;;16.60;;
3439;SDS011;1733;42.286;22.690;2022-12-29T15:28:49;25.23;;;14.60;;
3439;SDS011;1733;42.286;22.690;2022-12-29T15:31:18;39.83;;;22.50;;
3439;SDS011;1733;42.286;22.690;2022-12-29T15:33:47;34.63;;;18.30;;
3439;SDS011;1733;42.286;22.690;2022-12-29T15:36:18;19.97;;;13.30;;
3439;SDS011;1733;42.286;22.690;2022-12-29T15:38:47;15.93;;;12.63;;
3439;SDS011;1733;42.286;22.690;2022-12-29T15:41:20;87.73;;;43.07;;
3439;SDS011;1733;42.286;22.690;2022-12-29T15:43:55;49.03;;;29.03;;
3439;SDS011;1733;42.286;22.690;2022-12-29T15:46:31;31.63;;;16.57;;
3439;SDS011;1733;42.286;22.690;2022-12-29T15:48:58;22.23;;;15.07;;
3439;SDS011;1733;42.286;22.690;2022-12-29T15:51:27;18.47;;;12.97;;
3439;SDS011;1733;42.286;22.690;2022-12-29T15:53:57;21.37;;;14.73;;
3439;SDS011;1733;42.286;22.690;2022-12-29T15:56:25;18.60;;;12.20;;
3439;SDS011;1733;42.286;22.690;2022-12-29T15:58:55;28.83;;;18.47;;
3439;SDS011;1733;42.286;22.690;2022-12-29T16:01:23;119.63;;;56.10;;
3439;SDS011;1733;42.286;22.690;2022-12-29T16:03:54;51.90;;;28.17;;
3439;SDS011;1733;42.286;22.690;2022-12-29T16:06:26;30.10;;;20.83;;
3439;SDS011;1733;42.286;22.690;2022-12-29T16:08:56;35.40;;;19.77;;
3439;SDS011;1733;42.286;22.690;2022-12-29T16:11:26;48.93;;;27.57;;
3439;SDS011;1733;42.286;22.690;2022-12-29T16:13:58;38.27;;;19.07;;
3439;SDS011;1733;42.286;22.690;2022-12-29T16:16:26;21.70;;;15.17;;
3439;SDS011;1733;42.286;22.690;2022-12-29T16:18:55;23.60;;;14.70;;
3439;SDS011;1733;42.286;22.690;2022-12-29T16:21:24;22.77;;;15.60;;
3439;SDS011;1733;42.286;22.690;2022-12-29T16:23:54;19.93;;;13.70;;
3439;SDS011;1733;42.286;22.690;2022-12-29T16:26:27;39.10;;;16.50;;
3439;SDS011;1733;42.286;22.690;2022-12-29T16:28:56;25.07;;;13.50;;
3439;SDS011;1733;42.286;22.690;2022-12-29T16:31:25;48.77;;;29.20;;
3439;SDS011;1733;42.286;22.690;2022-12-29T16:34:10;71.13;;;31.97;;
3439;SDS011;1733;42.286;22.690;2022-12-29T16:36:51;32.83;;;17.10;;
3439;SDS011;1733;42.286;22.690;2022-12-29T16:39:23;40.10;;;19.40;;
3439;SDS011;1733;42.286;22.690;2022-12-29T16:41:57;27.50;;;13.40;;
3439;SDS011;1733;42.286;22.690;2022-12-29T16:44:25;36.50;;;17.20;;
3439;SDS011;1733;42.286;22.690;2022-12-29T16:47:00;32.03;;;18.50;;
3439;SDS011;1733;42.286;22.690;2022-12-29T16:49:31;31.53;;;21.03;;
3439;SDS011;1733;42.286;22.690;2022-12-29T16:51:59;46.30;;;21.07;;
3439;SDS011;1733;42.286;22.690;2022-12-29T16:54:28;27.40;;;17.00;;
3439;SDS011;1733;42.286;22.690;2022-12-29T16:57:01;35.97;;;20.87;;
3439;SDS011;1733;42.286;22.690;2022-12-29T16:59:32;50.70;;;26.00;;
3439;SDS011;1733;42.286;22.690;2022-12-29T17:02:05;49.73;;;25.47;;
3439;SDS011;1733;42.286;22.690;2022-12-29T17:04:34;64.60;;;35.20;;
3439;SDS011;1733;42.286;22.690;2022-12-29T17:07:01;42.60;;;23.13;;
3439;SDS011;1733;42.286;22.690;2022-12-29T17:09:28;36.90;;;22.40;;
3439;SDS011;1733;42.286;22.690;2022-12-29T17:11:56;39.00;;;20.60;;
3439;SDS011;1733;42.286;22.690;2022-12-29T17:14:30;32.40;;;23.70;;
3439;SDS011;1733;42.286;22.690;2022-12-29T17:17:02;27.97;;;20.03;;
3439;SDS011;1733;42.286;22.690;2022-12-29T17:19:32;37.83;;;23.07;;
3439;SDS011;1733;42.286;22.690;2022-12-29T17:22:02;55.23;;;35.60;;
3439;SDS011;1733;42.286;22.690;2022-12-29T17:24:35;62.70;;;32.37;;
3439;SDS011;1733;42.286;22.690;2022-12-29T17:27:02;61.27;;;29.40;;
3439;SDS011;1733;42.286;22.690;2022-12-29T17:29:32;84.40;;;44.17;;
3439;SDS011;1733;42.286;22.690;2022-12-29T17:32:00;78.20;;;37.80;;
3439;SDS011;1733;42.286;22.690;2022-12-29T17:34:29;58.40;;;30.47;;
3439;SDS011;1733;42.286;22.690;2022-12-29T17:36:57;82.23;;;42.47;;
3439;SDS011;1733;42.286;22.690;2022-12-29T17:39:24;73.67;;;42.20;;
3439;SDS011;1733;42.286;22.690;2022-12-29T17:41:51;85.03;;;45.00;;
3439;SDS011;1733;42.286;22.690;2022-12-29T17:44:19;70.73;;;37.33;;
3439;SDS011;1733;42.286;22.690;2022-12-29T17:46:52;60.37;;;31.50;;
3439;SDS011;1733;42.286;22.690;2022-12-29T17:49:19;63.23;;;32.93;;
3439;SDS011;1733;42.286;22.690;2022-12-29T17:51:46;63.83;;;34.70;;
3439;SDS011;1733;42.286;22.690;2022-12-29T17:54:16;69.33;;;41.50;;
3439;SDS011;1733;42.286;22.690;2022-12-29T17:56:46;63.50;;;32.20;;
3439;SDS011;1733;42.286;22.690;2022-12-29T17:59:13;58.93;;;27.37;;
3439;SDS011;1733;42.286;22.690;2022-12-29T18:01:41;37.13;;;25.93;;
3439;SDS011;1733;42.286;22.690;2022-12-29T18:04:12;41.90;;;24.20;;
3439;SDS011;1733;42.286;22.690;2022-12-29T18:06:40;38.17;;;23.83;;
3439;SDS011;1733;42.286;22.690;2022-12-29T18:09:08;39.60;;;26.00;;
3439;SDS011;1733;42.286;22.690;2022-12-29T18:11:35;37.27;;;23.90;;
3439;SDS011;1733;42.286;22.690;2022-12-29T18:14:04;53.03;;;29.27;;
3439;SDS011;1733;42.286;22.690;2022-12-29T18:16:34;62.20;;;33.20;;
3439;SDS011;1733;42.286;22.690;2022-12-29T18:19:01;75.50;;;41.90;;
3439;SDS011;1733;42.286;22.690;2022-12-29T18:21:29;70.23;;;41.43;;
3439;SDS011;1733;42.286;22.690;2022-12-29T18:23:57;76.83;;;40.80;;
3439;SDS011;1733;42.286;22.690;2022-12-29T18:26:24;69.53;;;40.97;;
3439;SDS011;1733;42.286;22.690;2022-12-29T18:28:53;81.47;;;37.77;;
3439;SDS011;1733;42.286;22.690;2022-12-29T18:31:20;85.50;;;40.83;;
3439;SDS011;1733;42.286;22.690;2022-12-29T18:33:49;89.57;;;43.60;;
3439;SDS011;1733;42.286;22.690;2022-12-29T18:36:18;97.67;;;48.47;;
3439;SDS011;1733;42.286;22.690;2022-12-29T18:38:48;100.53;;;52.07;;
3439;SDS011;1733;42.286;22.690;2022-12-29T18:41:18;96.03;;;47.70;;
3439;SDS011;1733;42.286;22.690;2022-12-29T18:43:46;108.00;;;53.40;;
3439;SDS011;1733;42.286;22.690;2022-12-29T18:46:14;92.67;;;46.33;;
3439;SDS011;1733;42.286;22.690;2022-12-29T18:48:41;81.00;;;44.03;;
3439;SDS011;1733;42.286;22.690;2022-12-29T18:51:11;90.80;;;44.97;;
3439;SDS011;1733;42.286;22.690;2022-12-29T18:53:41;103.83;;;51.17;;
3439;SDS011;1733;42.286;22.690;2022-12-29T18:56:10;138.07;;;58.53;;
3439;SDS011;1733;42.286;22.690;2022-12-29T18:58:37;107.17;;;52.40;;
3439;SDS011;1733;42.286;22.690;2022-12-29T19:01:05;89.50;;;46.20;;
3439;SDS011;1733;42.286;22.690;2022-12-29T19:03:32;91.53;;;47.10;;
3439;SDS011;1733;42.286;22.690;2022-12-29T19:05:59;88.10;;;45.27;;
3439;SDS011;1733;42.286;22.690;2022-12-29T19:08:26;85.60;;;46.47;;
3439;SDS011;1733;42.286;22.690;2022-12-29T19:10:53;115.63;;;52.50;;
3439;SDS011;1733;42.286;22.690;2022-12-29T19:13:21;110.43;;;51.70;;
3439;SDS011;1733;42.286;22.690;2022-12-29T19:15:53;100.60;;;51.80;;
3439;SDS011;1733;42.286;22.690;2022-12-29T19:18:22;107.70;;;56.43;;
3439;SDS011;1733;42.286;22.690;2022-12-29T19:20:51;110.40;;;52.97;;
3439;SDS011;1733;42.286;22.690;2022-12-29T19:23:19;95.50;;;50.80;;
3439;SDS011;1733;42.286;22.690;2022-12-29T19:25:48;89.90;;;50.37;;
3439;SDS011;1733;42.286;22.690;2022-12-29T19:28:16;80.87;;;46.50;;
3439;SDS011;1733;42.286;22.690;2022-12-29T19:30:47;88.53;;;46.20;;
3439;SDS011;1733;42.286;22.690;2022-12-29T19:33:14;81.47;;;47.93;;
3439;SDS011;1733;42.286;22.690;2022-12-29T19:35:41;93.50;;;52.17;;
3439;SDS011;1733;42.286;22.690;2022-12-29T19:38:09;90.03;;;43.70;;
3439;SDS011;1733;42.286;22.690;2022-12-29T19:40:39;73.93;;;40.23;;
3439;SDS011;1733;42.286;22.690;2022-12-29T19:43:08;67.93;;;39.47;;
3439;SDS011;1733;42.286;22.690;2022-12-29T19:45:37;68.40;;;38.20;;
3439;SDS011;1733;42.286;22.690;2022-12-29T19:48:06;72.57;;;42.30;;
3439;SDS011;1733;42.286;22.690;2022-12-29T19:50:33;90.37;;;36.43;;
3439;SDS011;1733;42.286;22.690;2022-12-29T19:53:00;83.27;;;41.20;;
3439;SDS011;1733;42.286;22.690;2022-12-29T19:55:27;89.53;;;45.47;;
3439;SDS011;1733;42.286;22.690;2022-12-29T19:57:54;83.27;;;40.63;;
3439;SDS011;1733;42.286;22.690;2022-12-29T20:00:21;100.30;;;43.70;;
3439;SDS011;1733;42.286;22.690;2022-12-29T20:02:48;80.87;;;36.93;;
3439;SDS011;1733;42.286;22.690;2022-12-29T20:05:16;90.40;;;46.30;;
3439;SDS011;1733;42.286;22.690;2022-12-29T20:07:43;62.93;;;32.53;;
3439;SDS011;1733;42.286;22.690;2022-12-29T20:10:11;78.73;;;40.80;;
3439;SDS011;1733;42.286;22.690;2022-12-29T20:12:38;90.87;;;44.60;;
3439;SDS011;1733;42.286;22.690;2022-12-29T20:15:05;72.07;;;33.33;;
3439;SDS011;1733;42.286;22.690;2022-12-29T20:17:33;70.90;;;39.27;;
3439;SDS011;1733;42.286;22.690;2022-12-29T20:20:00;63.83;;;36.00;;
3439;SDS011;1733;42.286;22.690;2022-12-29T20:22:29;53.23;;;35.07;;
3439;SDS011;1733;42.286;22.690;2022-12-29T20:24:56;67.53;;;32.33;;
3439;SDS011;1733;42.286;22.690;2022-12-29T20:27:23;58.43;;;31.10;;
3439;SDS011;1733;42.286;22.690;2022-12-29T20:29:50;75.23;;;39.77;;
3439;SDS011;1733;42.286;22.690;2022-12-29T20:32:18;78.23;;;39.27;;
3439;SDS011;1733;42.286;22.690;2022-12-29T20:34:49;67.77;;;34.07;;
3439;SDS011;1733;42.286;22.690;2022-12-29T20:37:18;80.53;;;36.70;;
3439;SDS011;1733;42.286;22.690;2022-12-29T20:39:48;108.13;;;52.77;;
3439;SDS011;1733;42.286;22.690;2022-12-29T20:42:15;104.97;;;40.47;;
3439;SDS011;1733;42.286;22.690;2022-12-29T20:44:42;76.97;;;34.80;;
